Terminal Aerodrome Forecast
Issued by NWS

Home | Current Version | Previous Version | Graphics & Text | Print | Product List | Glossary On
Versions: 1 2 3 4 5 6 7 8 9 10 11 12 13 14 15 16 17 18 19 20 21 22 23 24 25
752
FTUS43 KLOT 230259 AAA
TAFDPA
TAF AMD
KDPA 230259Z 2303/2324 09012KT P6SM SCT008 OVC012
     FM230430 12010KT 6SM BR OVC006
     FM230700 15009KT 2SM -RA BR OVC003
      TEMPO 2308/2312 1/2SM -RA FG VV002
     FM231300 21007KT 5SM BR OVC006
     FM231600 25011KT P6SM OVC015
     FM231900 27012G18KT P6SM SCT015 OVC025=

USA.gov is the U.S. government's official web portal to all federal, state and local government web resources and services.